WITT/BTJ METAR and TAF weather

Enter ICAO airport designator
Station Type Date Time Source
WITT METAR UTC NOAA

Error!


Station Type Date Time Source
WITT Decoded METAR UTC NOAA

Error!

Station Type Date Time Source
WITT TAF 2019/05/25 06:00 UTC NOAA

TAF WITT 250500Z 2506/2606 16007KT 9999 SCT019
BECMG 2507/2509 32012KT FEW017CB SCT018
BECMG 2513/2515 15006KT 8000 SCT018

Example: see airport list